Terminal Aerodrome Forecast
Issued by NWS

Home | Current Version | Previous Version | Text Only | Print | Product List | Glossary On
Versions: 1 2 3 4 5 6 7 8 9 10 11 12 13 14 15 16
000
FTUS45 KABQ 021727
TAFTCC
TAF
KTCC 021727Z 0218/0318 23007KT P6SM SCT070 SCT120
     FM022300 18008KT P6SM VCTS BKN070CB
     FM030300 03007KT P6SM VCSH BKN100
     FM031100 VRB05KT 4SM BR FEW025 BKN060=

USA.gov is the U.S. government's official web portal to all federal, state and local government web resources and services.